sensor_id;sensor_type;location;lat;lon;timestamp;pressure;altitude;pressure_sealevel;temperature;humidity
83733;BME280;73710;49.968;8.338;2024-02-21T05:04:59;51690.22;;;-141.83;77.32
83733;BME280;73710;49.968;8.338;2024-02-21T05:07:25;51670.19;;;-141.83;77.00
83733;BME280;73710;49.968;8.338;2024-02-21T05:09:50;51688.22;;;-141.83;76.77
83733;BME280;73710;49.968;8.338;2024-02-21T05:12:16;51694.25;;;-141.83;76.41
83733;BME280;73710;49.968;8.338;2024-02-21T05:14:41;51686.22;;;-141.83;75.84
83733;BME280;73710;49.968;8.338;2024-02-21T05:17:07;51672.19;;;-141.83;76.92
83733;BME280;73710;49.968;8.338;2024-02-21T05:19:32;51696.25;;;-141.83;76.90
83733;BME280;73710;49.968;8.338;2024-02-21T05:21:58;51686.22;;;-141.83;76.42
83733;BME280;73710;49.968;8.338;2024-02-21T05:24:24;51678.19;;;-141.83;76.14
83733;BME280;73710;49.968;8.338;2024-02-21T05:26:49;51718.28;;;-141.83;75.44
83733;BME280;73710;49.968;8.338;2024-02-21T05:29:14;51736.34;;;-141.83;75.64
83733;BME280;73710;49.968;8.338;2024-02-21T05:34:21;51694.25;;;-141.83;76.54
83733;BME280;73710;49.968;8.338;2024-02-21T05:36:46;51714.28;;;-141.83;76.49
83733;BME280;73710;49.968;8.338;2024-02-21T05:39:13;51694.25;;;-141.83;76.95
83733;BME280;73710;49.968;8.338;2024-02-21T05:41:39;51690.22;;;-141.83;76.71
83733;BME280;73710;49.968;8.338;2024-02-21T05:44:05;51702.25;;;-141.83;76.04
83733;BME280;73710;49.968;8.338;2024-02-21T05:46:30;51682.22;;;-141.83;76.78
83733;BME280;73710;49.968;8.338;2024-02-21T05:48:55;51678.19;;;-141.83;77.58
83733;BME280;73710;49.968;8.338;2024-02-21T05:51:20;51708.28;;;-141.83;77.79
83733;BME280;73710;49.968;8.338;2024-02-21T05:53:46;51686.22;;;-141.83;77.96
83733;BME280;73710;49.968;8.338;2024-02-21T05:56:12;51652.16;;;-141.83;79.02
83733;BME280;73710;49.968;8.338;2024-02-21T05:58:38;51668.19;;;-141.83;77.74
83733;BME280;73710;49.968;8.338;2024-02-21T06:01:03;51672.19;;;-141.83;77.59
83733;BME280;73710;49.968;8.338;2024-02-21T06:03:30;51654.16;;;-141.83;77.90
83733;BME280;73710;49.968;8.338;2024-02-21T06:05:56;51712.28;;;-141.83;77.49
83733;BME280;73710;49.968;8.338;2024-02-21T06:08:21;51670.19;;;-141.83;78.30
83733;BME280;73710;49.968;8.338;2024-02-21T06:10:47;51684.22;;;-141.83;79.57
83733;BME280;73710;49.968;8.338;2024-02-21T06:13:14;51678.19;;;-141.83;80.72
83733;BME280;73710;49.968;8.338;2024-02-21T06:15:39;51678.19;;;-141.83;82.78
83733;BME280;73710;49.968;8.338;2024-02-21T06:18:04;51688.22;;;-141.83;83.63
83733;BME280;73710;49.968;8.338;2024-02-21T06:20:30;51682.22;;;-141.83;82.81
83733;BME280;73710;49.968;8.338;2024-02-21T06:22:55;51684.22;;;-141.83;82.59
83733;BME280;73710;49.968;8.338;2024-02-21T06:25:21;51674.19;;;-141.83;83.71
83733;BME280;73710;49.968;8.338;2024-02-21T06:27:46;51668.19;;;-141.83;83.96
83733;BME280;73710;49.968;8.338;2024-02-21T06:30:12;51636.13;;;-141.83;82.25
83733;BME280;73710;49.968;8.338;2024-02-21T06:32:37;51654.16;;;-141.83;82.83
83733;BME280;73710;49.968;8.338;2024-02-21T06:35:04;51638.13;;;-141.83;82.57
83733;BME280;73710;49.968;8.338;2024-02-21T06:37:29;51650.16;;;-141.83;82.37
83733;BME280;73710;49.968;8.338;2024-02-21T06:39:55;51646.13;;;-141.83;83.25
83733;BME280;73710;49.968;8.338;2024-02-21T06:42:21;51682.22;;;-141.83;84.34
83733;BME280;73710;49.968;8.338;2024-02-21T06:44:46;51674.19;;;-141.83;85.55
83733;BME280;73710;49.968;8.338;2024-02-21T06:47:12;51654.16;;;-141.83;85.92
83733;BME280;73710;49.968;8.338;2024-02-21T06:49:37;51618.06;;;-141.83;86.34
83733;BME280;73710;49.968;8.338;2024-02-21T06:52:04;51682.22;;;-141.83;86.59
83733;BME280;73710;49.968;8.338;2024-02-21T06:54:30;51654.16;;;-141.83;86.49
83733;BME280;73710;49.968;8.338;2024-02-21T06:56:56;51682.22;;;-141.83;85.11
83733;BME280;73710;49.968;8.338;2024-02-21T06:59:21;51664.19;;;-141.83;85.47
83733;BME280;73710;49.968;8.338;2024-02-21T07:01:49;51668.19;;;-141.83;85.79
83733;BME280;73710;49.968;8.338;2024-02-21T07:04:14;51714.28;;;-141.83;85.74
83733;BME280;73710;49.968;8.338;2024-02-21T07:06:40;51626.09;;;-141.83;85.08
83733;BME280;73710;49.968;8.338;2024-02-21T07:09:06;51658.16;;;-141.83;83.40
83733;BME280;73710;49.968;8.338;2024-02-21T07:11:31;51686.22;;;-141.83;83.50
83733;BME280;73710;49.968;8.338;2024-02-21T07:13:57;51684.22;;;-141.83;81.38
83733;BME280;73710;49.968;8.338;2024-02-21T07:16:22;51660.16;;;-141.83;80.85
83733;BME280;73710;49.968;8.338;2024-02-21T07:18:47;51722.31;;;-141.83;79.99
83733;BME280;73710;49.968;8.338;2024-02-21T07:21:13;51684.22;;;-141.83;78.76
83733;BME280;73710;49.968;8.338;2024-02-21T07:23:41;51678.19;;;-141.83;77.19
83733;BME280;73710;49.968;8.338;2024-02-21T07:26:07;51706.25;;;-141.83;76.41
83733;BME280;73710;49.968;8.338;2024-02-21T07:28:32;51690.22;;;-141.83;76.77
83733;BME280;73710;49.968;8.338;2024-02-21T07:30:59;51678.19;;;-141.83;76.10
83733;BME280;73710;49.968;8.338;2024-02-21T07:33:25;51666.19;;;-141.83;76.00
83733;BME280;73710;49.968;8.338;2024-02-21T07:35:50;51714.28;;;-141.83;75.75
83733;BME280;73710;49.968;8.338;2024-02-21T07:38:16;51682.22;;;-141.83;74.92
83733;BME280;73710;49.968;8.338;2024-02-21T07:40:44;51690.22;;;-141.83;74.09
83733;BME280;73710;49.968;8.338;2024-02-21T07:43:10;51694.25;;;-141.83;72.79
83733;BME280;73710;49.968;8.338;2024-02-21T07:45:35;51672.19;;;-141.83;72.20
83733;BME280;73710;49.968;8.338;2024-02-21T07:48:01;51700.25;;;-141.83;72.52
83733;BME280;73710;49.968;8.338;2024-02-21T07:50:27;51678.19;;;-141.83;73.43
83733;BME280;73710;49.968;8.338;2024-02-21T07:52:52;51740.34;;;-141.83;73.08
83733;BME280;73710;49.968;8.338;2024-02-21T07:55:18;51702.25;;;-141.83;73.40
83733;BME280;73710;49.968;8.338;2024-02-21T07:57:43;51694.25;;;-141.83;71.78
83733;BME280;73710;49.968;8.338;2024-02-21T08:00:08;51720.28;;;-141.83;71.34
83733;BME280;73710;49.968;8.338;2024-02-21T08:02:39;51710.28;;;-141.83;71.52
83733;BME280;73710;49.968;8.338;2024-02-21T08:05:05;51686.22;;;-141.83;70.40
83733;BME280;73710;49.968;8.338;2024-02-21T08:07:30;51730.31;;;-141.83;69.57
83733;BME280;73710;49.968;8.338;2024-02-21T08:09:56;51718.28;;;-141.83;69.16
83733;BME280;73710;49.968;8.338;2024-02-21T08:12:21;51718.28;;;-141.83;68.45
83733;BME280;73710;49.968;8.338;2024-02-21T08:14:47;51690.22;;;-141.83;68.57
83733;BME280;73710;49.968;8.338;2024-02-21T08:17:12;51690.22;;;-141.83;67.56
83733;BME280;73710;49.968;8.338;2024-02-21T08:19:37;51732.31;;;-141.83;67.59
83733;BME280;73710;49.968;8.338;2024-02-21T08:22:03;51722.31;;;-141.83;66.91
83733;BME280;73710;49.968;8.338;2024-02-21T08:24:28;51746.34;;;-141.83;67.24
83733;BME280;73710;49.968;8.338;2024-02-21T08:26:54;51714.28;;;-141.83;67.67
83733;BME280;73710;49.968;8.338;2024-02-21T08:29:19;51714.28;;;-141.83;67.34
83733;BME280;73710;49.968;8.338;2024-02-21T08:31:44;51686.22;;;-141.83;66.48
83733;BME280;73710;49.968;8.338;2024-02-21T08:34:10;51726.31;;;-141.83;67.25
83733;BME280;73710;49.968;8.338;2024-02-21T08:36:36;51730.31;;;-141.83;67.01
83733;BME280;73710;49.968;8.338;2024-02-21T08:39:03;51712.28;;;-141.83;67.79
83733;BME280;73710;49.968;8.338;2024-02-21T08:41:32;51674.19;;;-141.83;67.28
83733;BME280;73710;49.968;8.338;2024-02-21T08:43:58;51712.28;;;-141.83;66.46
83733;BME280;73710;49.968;8.338;2024-02-21T08:46:23;51724.31;;;-141.83;67.56
83733;BME280;73710;49.968;8.338;2024-02-21T08:48:50;51706.25;;;-141.83;66.76
83733;BME280;73710;49.968;8.338;2024-02-21T08:51:16;51704.25;;;-141.83;66.48
83733;BME280;73710;49.968;8.338;2024-02-21T08:53:42;51718.28;;;-141.83;66.27
83733;BME280;73710;49.968;8.338;2024-02-21T08:56:07;51694.25;;;-141.83;66.23
83733;BME280;73710;49.968;8.338;2024-02-21T08:58:33;51762.38;;;-141.83;64.58
83733;BME280;73710;49.968;8.338;2024-02-21T09:00:58;51748.34;;;-141.83;64.09
83733;BME280;73710;49.968;8.338;2024-02-21T09:03:24;51720.28;;;-141.83;62.05
83733;BME280;73710;49.968;8.338;2024-02-21T09:05:50;51770.41;;;-141.83;60.80
83733;BME280;73710;49.968;8.338;2024-02-21T09:08:15;51730.31;;;-141.83;60.63
83733;BME280;73710;49.968;8.338;2024-02-21T09:10:41;51766.41;;;-141.83;59.23
83733;BME280;73710;49.968;8.338;2024-02-21T09:13:06;51756.38;;;-141.83;57.98
83733;BME280;73710;49.968;8.338;2024-02-21T09:15:33;51766.41;;;-141.83;58.53
83733;BME280;73710;49.968;8.338;2024-02-21T09:17:59;51752.38;;;-141.83;57.96
83733;BME280;73710;49.968;8.338;2024-02-21T09:20:24;51730.31;;;-141.83;59.53
83733;BME280;73710;49.968;8.338;2024-02-21T09:22:50;51738.34;;;-141.83;59.22
83733;BME280;73710;49.968;8.338;2024-02-21T09:25:15;51722.31;;;-141.83;58.57
83733;BME280;73710;49.968;8.338;2024-02-21T09:27:41;51730.31;;;-141.83;58.44
83733;BME280;73710;49.968;8.338;2024-02-21T09:30:06;51722.31;;;-141.83;59.47
83733;BME280;73710;49.968;8.338;2024-02-21T09:32:32;51720.28;;;-141.83;59.14
83733;BME280;73710;49.968;8.338;2024-02-21T09:35:00;51770.41;;;-141.83;57.95
83733;BME280;73710;49.968;8.338;2024-02-21T09:37:25;51702.25;;;-141.83;59.07
83733;BME280;73710;49.968;8.338;2024-02-21T09:39:50;51730.31;;;-141.83;59.93
83733;BME280;73710;49.968;8.338;2024-02-21T09:42:20;51730.31;;;-141.83;60.94
83733;BME280;73710;49.968;8.338;2024-02-21T09:44:47;51766.41;;;-141.83;60.73
83733;BME280;73710;49.968;8.338;2024-02-21T09:47:27;51750.38;;;-141.83;58.95
83733;BME280;73710;49.968;8.338;2024-02-21T09:49:57;51740.34;;;-141.83;58.13
83733;BME280;73710;49.968;8.338;2024-02-21T09:52:24;51714.28;;;-141.83;59.32
83733;BME280;73710;49.968;8.338;2024-02-21T09:54:51;51746.34;;;-141.83;59.56
83733;BME280;73710;49.968;8.338;2024-02-21T09:57:18;51750.38;;;-141.83;59.92
83733;BME280;73710;49.968;8.338;2024-02-21T09:59:44;51782.44;;;-141.83;58.53
83733;BME280;73710;49.968;8.338;2024-02-21T10:02:10;51742.34;;;-141.83;57.95
83733;BME280;73710;49.968;8.338;2024-02-21T10:04:39;51734.31;;;-141.83;57.24
83733;BME280;73710;49.968;8.338;2024-02-21T10:07:04;51778.41;;;-141.83;55.64
83733;BME280;73710;49.968;8.338;2024-02-21T10:09:30;51770.41;;;-141.83;54.61
83733;BME280;73710;49.968;8.338;2024-02-21T10:12:06;51766.41;;;-141.83;55.96
83733;BME280;73710;49.968;8.338;2024-02-21T10:14:32;51786.44;;;-141.83;56.46
83733;BME280;73710;49.968;8.338;2024-02-21T10:16:57;51718.28;;;-141.83;55.72
83733;BME280;73710;49.968;8.338;2024-02-21T10:19:27;51730.31;;;-141.83;55.94
83733;BME280;73710;49.968;8.338;2024-02-21T10:24:29;51758.38;;;-141.83;54.83
83733;BME280;73710;49.968;8.338;2024-02-21T10:27:05;51762.38;;;-141.83;56.52
83733;BME280;73710;49.968;8.338;2024-02-21T10:29:34;51770.41;;;-141.83;55.89
83733;BME280;73710;49.968;8.338;2024-02-21T10:32:09;51778.41;;;-141.83;57.04
83733;BME280;73710;49.968;8.338;2024-02-21T10:34:35;51750.38;;;-141.83;56.91
83733;BME280;73710;49.968;8.338;2024-02-21T10:37:05;51762.38;;;-141.83;56.70
83733;BME280;73710;49.968;8.338;2024-02-21T10:39:36;51746.34;;;-141.83;55.72
83733;BME280;73710;49.968;8.338;2024-02-21T10:42:02;51730.31;;;-141.83;55.15
83733;BME280;73710;49.968;8.338;2024-02-21T10:44:32;51742.34;;;-141.83;56.03
83733;BME280;73710;49.968;8.338;2024-02-21T10:46:58;51756.38;;;-141.83;55.70
83733;BME280;73710;49.968;8.338;2024-02-21T10:49:25;51714.28;;;-141.83;55.15
83733;BME280;73710;49.968;8.338;2024-02-21T10:51:55;51780.44;;;-141.83;54.58
83733;BME280;73710;49.968;8.338;2024-02-21T10:57:13;51768.41;;;-141.83;53.57
83733;BME280;73710;49.968;8.338;2024-02-21T10:59:39;51810.50;;;-141.83;53.11
83733;BME280;73710;49.968;8.338;2024-02-21T11:02:05;51766.41;;;-141.83;52.40
83733;BME280;73710;49.968;8.338;2024-02-21T11:04:32;51746.34;;;-141.83;53.61
83733;BME280;73710;49.968;8.338;2024-02-21T11:07:03;51746.34;;;-141.83;53.17
83733;BME280;73710;49.968;8.338;2024-02-21T11:09:30;51748.34;;;-141.83;53.04
83733;BME280;73710;49.968;8.338;2024-02-21T11:11:57;51770.41;;;-141.83;52.94
83733;BME280;73710;49.968;8.338;2024-02-21T11:14:27;51764.38;;;-141.83;52.59
83733;BME280;73710;49.968;8.338;2024-02-21T11:16:52;51722.31;;;-141.83;52.78
83733;BME280;73710;49.968;8.338;2024-02-21T11:19:22;51770.41;;;-141.83;52.97
83733;BME280;73710;49.968;8.338;2024-02-21T11:21:49;51780.44;;;-141.83;51.81
83733;BME280;73710;49.968;8.338;2024-02-21T11:24:35;51738.34;;;-141.83;51.59
83733;BME280;73710;49.968;8.338;2024-02-21T11:27:21;51754.38;;;-141.83;52.14
83733;BME280;73710;49.968;8.338;2024-02-21T11:29:55;51792.44;;;-141.83;51.26
83733;BME280;73710;49.968;8.338;2024-02-21T11:32:21;51732.31;;;-141.83;51.52
83733;BME280;73710;49.968;8.338;2024-02-21T11:34:57;51740.34;;;-141.83;52.15
83733;BME280;73710;49.968;8.338;2024-02-21T11:37:27;51742.34;;;-141.83;51.75
83733;BME280;73710;49.968;8.338;2024-02-21T11:39:56;51754.38;;;-141.83;51.72
83733;BME280;73710;49.968;8.338;2024-02-21T11:42:22;51744.34;;;-141.83;53.17
83733;BME280;73710;49.968;8.338;2024-02-21T11:44:48;51750.38;;;-141.83;51.60
83733;BME280;73710;49.968;8.338;2024-02-21T11:47:14;51752.38;;;-141.83;51.59
83733;BME280;73710;49.968;8.338;2024-02-21T11:49:45;51792.44;;;-141.83;51.61
83733;BME280;73710;49.968;8.338;2024-02-21T11:52:12;51758.38;;;-141.83;49.99
83733;BME280;73710;49.968;8.338;2024-02-21T11:54:40;51778.41;;;-141.83;51.38
83733;BME280;73710;49.968;8.338;2024-02-21T11:57:06;51762.38;;;-141.83;51.78
83733;BME280;73710;49.968;8.338;2024-02-21T11:59:32;51770.41;;;-141.83;52.17
83733;BME280;73710;49.968;8.338;2024-02-21T12:01:59;51770.41;;;-141.83;51.37
83733;BME280;73710;49.968;8.338;2024-02-21T12:04:24;51776.41;;;-141.83;51.60
83733;BME280;73710;49.968;8.338;2024-02-21T12:06:52;51750.38;;;-141.83;52.31
83733;BME280;73710;49.968;8.338;2024-02-21T12:09:18;51762.38;;;-141.83;51.38
83733;BME280;73710;49.968;8.338;2024-02-21T12:11:44;51758.38;;;-141.83;50.96
83733;BME280;73710;49.968;8.338;2024-02-21T12:14:10;51760.38;;;-141.83;51.06
83733;BME280;73710;49.968;8.338;2024-02-21T12:16:36;51722.31;;;-141.83;51.69
83733;BME280;73710;49.968;8.338;2024-02-21T12:19:05;51774.41;;;-141.83;52.52
83733;BME280;73710;49.968;8.338;2024-02-21T12:21:31;51750.38;;;-141.83;52.36
83733;BME280;73710;49.968;8.338;2024-02-21T12:23:58;51762.38;;;-141.83;51.92
83733;BME280;73710;49.968;8.338;2024-02-21T12:26:24;51780.44;;;-141.83;50.96
83733;BME280;73710;49.968;8.338;2024-02-21T12:28:49;51786.44;;;-141.83;51.22
83733;BME280;73710;49.968;8.338;2024-02-21T12:31:15;51786.44;;;-141.83;50.45
83733;BME280;73710;49.968;8.338;2024-02-21T12:33:44;51750.38;;;-141.83;51.61
83733;BME280;73710;49.968;8.338;2024-02-21T12:36:09;51766.41;;;-141.83;51.67
83733;BME280;73710;49.968;8.338;2024-02-21T12:38:35;51766.41;;;-141.83;52.14
83733;BME280;73710;49.968;8.338;2024-02-21T12:41:01;51802.47;;;-141.83;51.83
83733;BME280;73710;49.968;8.338;2024-02-21T12:43:26;51782.44;;;-141.83;52.13
83733;BME280;73710;49.968;8.338;2024-02-21T12:45:52;51756.38;;;-141.83;52.48
83733;BME280;73710;49.968;8.338;2024-02-21T12:48:18;51758.38;;;-141.83;52.04
83733;BME280;73710;49.968;8.338;2024-02-21T12:50:50;51750.38;;;-141.83;52.02
83733;BME280;73710;49.968;8.338;2024-02-21T12:53:17;51736.34;;;-141.83;52.55
83733;BME280;73710;49.968;8.338;2024-02-21T12:55:45;51766.41;;;-141.83;52.59
83733;BME280;73710;49.968;8.338;2024-02-21T12:58:10;51756.38;;;-141.83;52.57
83733;BME280;73710;49.968;8.338;2024-02-21T13:00:35;51738.34;;;-141.83;53.09
83733;BME280;73710;49.968;8.338;2024-02-21T13:03:01;51744.34;;;-141.83;52.10
83733;BME280;73710;49.968;8.338;2024-02-21T13:05:26;51782.44;;;-141.83;52.29
83733;BME280;73710;49.968;8.338;2024-02-21T13:07:52;51742.34;;;-141.83;51.71
83733;BME280;73710;49.968;8.338;2024-02-21T13:10:18;51726.31;;;-141.83;52.12
83733;BME280;73710;49.968;8.338;2024-02-21T13:12:43;51774.41;;;-141.83;52.57
83733;BME280;73710;49.968;8.338;2024-02-21T13:15:09;51750.38;;;-141.83;53.38
83733;BME280;73710;49.968;8.338;2024-02-21T13:17:37;51738.34;;;-141.83;53.49
83733;BME280;73710;49.968;8.338;2024-02-21T13:20:02;51782.44;;;-141.83;54.37
83733;BME280;73710;49.968;8.338;2024-02-21T13:22:29;51746.34;;;-141.83;53.56
83733;BME280;73710;49.968;8.338;2024-02-21T13:24:54;51780.44;;;-141.83;53.79
83733;BME280;73710;49.968;8.338;2024-02-21T13:27:20;51746.34;;;-141.83;52.86
83733;BME280;73710;49.968;8.338;2024-02-21T13:29:45;51756.38;;;-141.83;52.41
83733;BME280;73710;49.968;8.338;2024-02-21T13:32:10;51754.38;;;-141.83;51.86
83733;BME280;73710;49.968;8.338;2024-02-21T13:34:36;51752.38;;;-141.83;52.50
83733;BME280;73710;49.968;8.338;2024-02-21T13:37:01;51776.41;;;-141.83;51.25
83733;BME280;73710;49.968;8.338;2024-02-21T13:39:27;51786.44;;;-141.83;50.87
83733;BME280;73710;49.968;8.338;2024-02-21T13:41:52;51746.34;;;-141.83;50.70
83733;BME280;73710;49.968;8.338;2024-02-21T13:44:18;51738.34;;;-141.83;51.41
83733;BME280;73710;49.968;8.338;2024-02-21T13:46:44;51750.38;;;-141.83;51.37
83733;BME280;73710;49.968;8.338;2024-02-21T13:49:09;51772.41;;;-141.83;51.50
83733;BME280;73710;49.968;8.338;2024-02-21T13:51:35;51758.38;;;-141.83;50.75
83733;BME280;73710;49.968;8.338;2024-02-21T13:54:02;51722.31;;;-141.83;50.85
83733;BME280;73710;49.968;8.338;2024-02-21T13:56:28;51774.41;;;-141.83;51.17
83733;BME280;73710;49.968;8.338;2024-02-21T13:58:54;51742.34;;;-141.83;52.06
83733;BME280;73710;49.968;8.338;2024-02-21T14:01:20;51788.44;;;-141.83;50.89
83733;BME280;73710;49.968;8.338;2024-02-21T14:03:45;51790.44;;;-141.83;51.48
83733;BME280;73710;49.968;8.338;2024-02-21T14:06:10;51742.34;;;-141.83;51.85
83733;BME280;73710;49.968;8.338;2024-02-21T14:08:37;51740.34;;;-141.83;52.25
83733;BME280;73710;49.968;8.338;2024-02-21T14:11:05;51738.34;;;-141.83;52.03
83733;BME280;73710;49.968;8.338;2024-02-21T14:13:31;51756.38;;;-141.83;52.43
83733;BME280;73710;49.968;8.338;2024-02-21T14:15:56;51760.38;;;-141.83;51.94
83733;BME280;73710;49.968;8.338;2024-02-21T14:18:22;51754.38;;;-141.83;52.06
83733;BME280;73710;49.968;8.338;2024-02-21T14:20:47;51714.28;;;-141.83;52.84
83733;BME280;73710;49.968;8.338;2024-02-21T14:23:13;51738.34;;;-141.83;52.66
83733;BME280;73710;49.968;8.338;2024-02-21T14:25:38;51754.38;;;-141.83;51.91
83733;BME280;73710;49.968;8.338;2024-02-21T14:28:05;51738.34;;;-141.83;51.90
83733;BME280;73710;49.968;8.338;2024-02-21T14:30:30;51782.44;;;-141.83;51.27
83733;BME280;73710;49.968;8.338;2024-02-21T14:32:56;51758.38;;;-141.83;50.89
83733;BME280;73710;49.968;8.338;2024-02-21T14:35:21;51770.41;;;-141.83;50.52
83733;BME280;73710;49.968;8.338;2024-02-21T14:37:47;51724.31;;;-141.83;50.31
83733;BME280;73710;49.968;8.338;2024-02-21T14:40:14;51760.38;;;-141.83;50.19
83733;BME280;73710;49.968;8.338;2024-02-21T14:42:39;51752.38;;;-141.83;50.13
83733;BME280;73710;49.968;8.338;2024-02-21T14:45:05;51728.31;;;-141.83;50.54
83733;BME280;73710;49.968;8.338;2024-02-21T14:47:31;51784.44;;;-141.83;51.58
83733;BME280;73710;49.968;8.338;2024-02-21T14:49:57;51780.44;;;-141.83;50.45
83733;BME280;73710;49.968;8.338;2024-02-21T14:52:22;51774.41;;;-141.83;50.40
83733;BME280;73710;49.968;8.338;2024-02-21T14:54:50;51782.44;;;-141.83;50.74
83733;BME280;73710;49.968;8.338;2024-02-21T14:57:17;51778.41;;;-141.83;51.95
83733;BME280;73710;49.968;8.338;2024-02-21T14:59:43;51738.34;;;-141.83;52.06
83733;BME280;73710;49.968;8.338;2024-02-21T15:02:08;51742.34;;;-141.83;52.31
83733;BME280;73710;49.968;8.338;2024-02-21T15:04:34;51716.28;;;-141.83;53.34
83733;BME280;73710;49.968;8.338;2024-02-21T15:07:01;51744.34;;;-141.83;52.85
83733;BME280;73710;49.968;8.338;2024-02-21T15:09:26;51724.31;;;-141.83;53.89
83733;BME280;73710;49.968;8.338;2024-02-21T15:11:53;51756.38;;;-141.83;55.73
83733;BME280;73710;49.968;8.338;2024-02-21T15:14:18;51750.38;;;-141.83;57.28
83733;BME280;73710;49.968;8.338;2024-02-21T15:16:43;51706.25;;;-141.83;58.21
83733;BME280;73710;49.968;8.338;2024-02-21T15:19:09;51718.28;;;-141.83;58.51
83733;BME280;73710;49.968;8.338;2024-02-21T15:21:35;51734.31;;;-141.83;59.16
83733;BME280;73710;49.968;8.338;2024-02-21T15:24:00;51756.38;;;-141.83;59.13
83733;BME280;73710;49.968;8.338;2024-02-21T15:26:27;51724.31;;;-141.83;58.67
83733;BME280;73710;49.968;8.338;2024-02-21T15:28:52;51718.28;;;-141.83;58.69
83733;BME280;73710;49.968;8.338;2024-02-21T15:31:20;51718.28;;;-141.83;59.23
83733;BME280;73710;49.968;8.338;2024-02-21T15:33:47;51770.41;;;-141.83;58.97
83733;BME280;73710;49.968;8.338;2024-02-21T15:36:12;51732.31;;;-141.83;59.20
83733;BME280;73710;49.968;8.338;2024-02-21T15:38:38;51728.31;;;-141.83;59.56
83733;BME280;73710;49.968;8.338;2024-02-21T15:41:03;51722.31;;;-141.83;59.75
83733;BME280;73710;49.968;8.338;2024-02-21T15:43:29;51726.31;;;-141.83;59.85
83733;BME280;73710;49.968;8.338;2024-02-21T15:45:54;51686.22;;;-141.83;59.54
83733;BME280;73710;49.968;8.338;2024-02-21T15:48:20;51716.28;;;-141.83;59.32
83733;BME280;73710;49.968;8.338;2024-02-21T15:50:47;51734.31;;;-141.83;59.05
83733;BME280;73710;49.968;8.338;2024-02-21T15:53:12;51714.28;;;-141.83;60.33
83733;BME280;73710;49.968;8.338;2024-02-21T15:55:38;51722.31;;;-141.83;60.75
83733;BME280;73710;49.968;8.338;2024-02-21T15:58:04;51738.34;;;-141.83;59.83
83733;BME280;73710;49.968;8.338;2024-02-21T16:00:29;51722.31;;;-141.83;59.87
83733;BME280;73710;49.968;8.338;2024-02-21T16:02:57;51730.31;;;-141.83;60.41
83733;BME280;73710;49.968;8.338;2024-02-21T16:05:23;51698.25;;;-141.83;60.35
83733;BME280;73710;49.968;8.338;2024-02-21T16:07:48;51730.31;;;-141.83;60.77
83733;BME280;73710;49.968;8.338;2024-02-21T16:10:14;51732.31;;;-141.83;61.15
83733;BME280;73710;49.968;8.338;2024-02-21T16:12:39;51714.28;;;-141.83;61.21
83733;BME280;73710;49.968;8.338;2024-02-21T16:15:07;51702.25;;;-141.83;60.97
83733;BME280;73710;49.968;8.338;2024-02-21T16:17:32;51708.28;;;-141.83;61.56
83733;BME280;73710;49.968;8.338;2024-02-21T16:19:58;51706.25;;;-141.83;61.53
83733;BME280;73710;49.968;8.338;2024-02-21T16:22:24;51746.34;;;-141.83;61.07
83733;BME280;73710;49.968;8.338;2024-02-21T16:24:49;51732.31;;;-141.83;60.77
83733;BME280;73710;49.968;8.338;2024-02-21T16:27:14;51710.28;;;-141.83;61.01
83733;BME280;73710;49.968;8.338;2024-02-21T16:29:40;51732.31;;;-141.83;61.30
83733;BME280;73710;49.968;8.338;2024-02-21T16:32:06;51718.28;;;-141.83;62.02
83733;BME280;73710;49.968;8.338;2024-02-21T16:34:31;51726.31;;;-141.83;62.13
83733;BME280;73710;49.968;8.338;2024-02-21T16:36:58;51714.28;;;-141.83;63.14
83733;BME280;73710;49.968;8.338;2024-02-21T16:39:24;51694.25;;;-141.83;63.71
83733;BME280;73710;49.968;8.338;2024-02-21T16:41:51;51698.25;;;-141.83;63.85
83733;BME280;73710;49.968;8.338;2024-02-21T16:44:21;51712.28;;;-141.83;63.78
83733;BME280;73710;49.968;8.338;2024-02-21T16:46:47;51678.19;;;-141.83;64.37
83733;BME280;73710;49.968;8.338;2024-02-21T16:49:12;51682.22;;;-141.83;64.60
83733;BME280;73710;49.968;8.338;2024-02-21T16:51:38;51734.31;;;-141.83;64.61
83733;BME280;73710;49.968;8.338;2024-02-21T16:54:03;51702.25;;;-141.83;64.32
83733;BME280;73710;49.968;8.338;2024-02-21T16:56:34;51728.31;;;-141.83;64.55
83733;BME280;73710;49.968;8.338;2024-02-21T16:58:59;51704.25;;;-141.83;64.60
83733;BME280;73710;49.968;8.338;2024-02-21T17:01:24;51716.28;;;-141.83;64.51
83733;BME280;73710;49.968;8.338;2024-02-21T17:03:50;51718.28;;;-141.83;64.26
83733;BME280;73710;49.968;8.338;2024-02-21T17:06:16;51718.28;;;-141.83;64.49
83733;BME280;73710;49.968;8.338;2024-02-21T17:08:43;51702.25;;;-141.83;64.89
83733;BME280;73710;49.968;8.338;2024-02-21T17:11:08;51730.31;;;-141.83;64.40
83733;BME280;73710;49.968;8.338;2024-02-21T17:13:33;51722.31;;;-141.83;65.47
83733;BME280;73710;49.968;8.338;2024-02-21T17:15:59;51686.22;;;-141.83;65.81
83733;BME280;73710;49.968;8.338;2024-02-21T17:18:24;51732.31;;;-141.83;65.65
83733;BME280;73710;49.968;8.338;2024-02-21T17:20:49;51706.25;;;-141.83;65.72
83733;BME280;73710;49.968;8.338;2024-02-21T17:23:15;51694.25;;;-141.83;64.81
83733;BME280;73710;49.968;8.338;2024-02-21T17:25:41;51696.25;;;-141.83;64.73
83733;BME280;73710;49.968;8.338;2024-02-21T17:28:07;51702.25;;;-141.83;64.57
83733;BME280;73710;49.968;8.338;2024-02-21T17:30:32;51696.25;;;-141.83;65.29
83733;BME280;73710;49.968;8.338;2024-02-21T17:33:02;51710.28;;;-141.83;65.19
83733;BME280;73710;49.968;8.338;2024-02-21T17:35:27;51704.25;;;-141.83;65.37
83733;BME280;73710;49.968;8.338;2024-02-21T17:37:53;51718.28;;;-141.83;65.74
83733;BME280;73710;49.968;8.338;2024-02-21T17:40:18;51658.16;;;-141.83;66.34
83733;BME280;73710;49.968;8.338;2024-02-21T17:42:43;51676.19;;;-141.83;67.07
83733;BME280;73710;49.968;8.338;2024-02-21T17:45:09;51694.25;;;-141.83;66.02
83733;BME280;73710;49.968;8.338;2024-02-21T17:47:34;51694.25;;;-141.83;66.80